Time;durP1;ratioP1;P1;durP2;ratioP2;P2;SDS_P1;SDS_P2;PMS_P1;PMS_P2;Temp;Humidity;BMP_temperature;BMP_pressure;BME280_temperature;BME280_humidity;BME280_pressure;Samples;Min_cycle;Max_cycle;Signal;HPM_P1;HPM_P2
2023/01/31 00:00:06;;;;;;;;;;;4.50;99.90;;;;;;5012869;28;19922;-76
2023/01/31 00:02:32;;;;;;;;;;;4.50;99.90;;;;;;5000717;28;19925;-76
2023/01/31 00:04:58;;;;;;;;;;;4.50;99.90;;;;;;4992433;28;19979;-76
2023/01/31 00:07:23;;;;;;;;;;;4.40;99.90;;;;;;5028412;28;19933;-76
2023/01/31 00:09:49;;;;;;;;;;;4.40;99.90;;;;;;5011778;28;20067;-77
2023/01/31 00:12:14;;;;;;;;;;;4.40;99.90;;;;;;5009743;28;19921;-76
2023/01/31 00:14:40;;;;;;;;;;;4.30;99.90;;;;;;5010395;28;20008;-74
2023/01/31 00:17:05;;;;;;;;;;;4.30;99.90;;;;;;4995401;28;19925;-74
2023/01/31 00:19:31;;;;;;;;;;;4.30;99.90;;;;;;4996865;28;19922;-74
2023/01/31 00:21:56;;;;;;;;;;;4.30;99.90;;;;;;5032569;28;19944;-75
2023/01/31 00:24:22;;;;;;;;;;;4.30;99.90;;;;;;5030482;28;19928;-74
2023/01/31 00:26:49;;;;;;;;;;;4.30;99.90;;;;;;4999386;28;20348;-75
2023/01/31 00:29:14;;;;;;;;;;;4.30;99.90;;;;;;4998473;28;19930;-74
2023/01/31 00:31:40;;;;;;;;;;;4.30;99.90;;;;;;5032344;28;19921;-74
2023/01/31 00:34:05;;;;;;;;;;;4.30;99.90;;;;;;5031637;28;20020;-74
2023/01/31 00:36:32;;;;;;;;;;;4.30;99.90;;;;;;5014758;28;19929;-74
2023/01/31 00:38:59;;;;;;;;;;;4.30;99.90;;;;;;5013461;28;19922;-75
2023/01/31 00:41:25;;;;;;;;;;;4.30;99.90;;;;;;4999112;28;19929;-74
2023/01/31 00:43:50;;;;;;;;;;;4.30;99.90;;;;;;4999361;28;20302;-74
2023/01/31 00:46:16;;;;;;;;;;;4.30;99.90;;;;;;4999210;28;19936;-74
2023/01/31 00:48:42;;;;;;;;;;;4.20;99.90;;;;;;4999364;28;19921;-74
2023/01/31 00:51:07;;;;;;;;;;;4.20;99.90;;;;;;5015613;28;19929;-75
2023/01/31 00:53:33;;;;;;;;;;;4.10;99.90;;;;;;4998238;28;20528;-74
2023/01/31 00:56:06;;;;;;;;;;;4.10;99.90;;;;;;4998903;28;19921;-74
2023/01/31 00:58:32;;;;;;;;;;;4.10;99.90;;;;;;5031572;28;20385;-75
2023/01/31 01:01:25;;;;;;;;;;;4.10;99.90;;;;;;5031631;28;19928;-75
2023/01/31 01:03:50;;;;;;;;;;;4.10;99.90;;;;;;5012139;28;19944;-74
2023/01/31 01:06:16;;;;;;;;;;;4.00;99.90;;;;;;4998500;28;20397;-74
2023/01/31 01:08:42;;;;;;;;;;;4.00;99.90;;;;;;5014933;28;19929;-74
2023/01/31 01:11:16;;;;;;;;;;;4.00;99.90;;;;;;5014921;28;19921;-74
2023/01/31 01:13:42;;;;;;;;;;;4.00;99.90;;;;;;5015137;28;19922;-74
2023/01/31 01:16:09;;;;;;;;;;;3.90;99.90;;;;;;5014822;28;19926;-75
2023/01/31 01:18:35;;;;;;;;;;;4.00;99.90;;;;;;4998157;28;19928;-75
2023/01/31 01:21:24;;;;;;;;;;;3.90;99.90;;;;;;5014753;28;19925;-74
2023/01/31 01:23:49;;;;;;;;;;;3.90;99.90;;;;;;4993301;28;20286;-74
2023/01/31 01:26:16;;;;;;;;;;;3.90;99.90;;;;;;5014494;28;19925;-74
2023/01/31 01:28:42;;;;;;;;;;;3.90;99.90;;;;;;4998500;28;20325;-74
2023/01/31 01:31:08;;;;;;;;;;;3.90;99.90;;;;;;5013599;28;19922;-74
2023/01/31 01:33:34;;;;;;;;;;;3.90;99.90;;;;;;5014797;28;19921;-75
2023/01/31 01:36:00;;;;;;;;;;;3.90;99.90;;;;;;5014805;28;19921;-75
2023/01/31 01:38:26;;;;;;;;;;;3.90;99.90;;;;;;5014323;28;19925;-75
2023/01/31 01:40:51;;;;;;;;;;;3.90;99.90;;;;;;5014642;28;19928;-75
2023/01/31 01:43:17;;;;;;;;;;;3.80;99.90;;;;;;5014220;28;19922;-75
2023/01/31 01:45:43;;;;;;;;;;;3.90;99.90;;;;;;4997351;28;19971;-75
2023/01/31 01:48:12;;;;;;;;;;;3.80;99.90;;;;;;5014474;28;19921;-75
2023/01/31 01:50:40;;;;;;;;;;;3.80;99.90;;;;;;5014189;28;20400;-75
2023/01/31 01:53:16;;;;;;;;;;;3.80;99.90;;;;;;5014095;28;19921;-75
2023/01/31 01:55:54;;;;;;;;;;;3.90;99.90;;;;;;5014109;28;19926;-75
2023/01/31 01:58:22;;;;;;;;;;;3.90;99.90;;;;;;5014373;28;20432;-75
2023/01/31 02:00:48;;;;;;;;;;;3.80;99.90;;;;;;5013032;28;19928;-75
2023/01/31 02:03:14;;;;;;;;;;;3.90;99.90;;;;;;5029678;28;19922;-75
2023/01/31 02:05:42;;;;;;;;;;;3.90;99.90;;;;;;4997290;28;19932;-74
2023/01/31 02:08:08;;;;;;;;;;;4.00;99.90;;;;;;5030297;28;20028;-75
2023/01/31 02:10:40;;;;;;;;;;;4.00;99.90;;;;;;4997486;28;20021;-75
2023/01/31 02:13:05;;;;;;;;;;;4.00;99.90;;;;;;5013693;28;20004;-75
2023/01/31 02:15:32;;;;;;;;;;;4.00;99.90;;;;;;5030149;28;20008;-75
2023/01/31 02:17:57;;;;;;;;;;;4.00;99.90;;;;;;5012862;28;20007;-75
2023/01/31 02:20:42;;;;;;;;;;;4.00;99.90;;;;;;5030068;28;19960;-75
2023/01/31 02:23:11;;;;;;;;;;;4.00;99.90;;;;;;5030068;28;19929;-75
2023/01/31 02:25:55;;;;;;;;;;;4.00;99.90;;;;;;5029040;28;19931;-74
2023/01/31 02:28:39;;;;;;;;;;;4.10;99.90;;;;;;5012764;28;19921;-75
2023/01/31 02:31:24;;;;;;;;;;;4.10;99.90;;;;;;5013456;28;19922;-75
2023/01/31 02:34:11;;;;;;;;;;;4.20;99.90;;;;;;5013395;28;19921;-75
2023/01/31 02:36:40;;;;;;;;;;;4.20;99.90;;;;;;5012866;28;19928;-75
2023/01/31 02:39:23;;;;;;;;;;;4.20;99.90;;;;;;5013299;28;19932;-75
2023/01/31 02:41:54;;;;;;;;;;;4.20;99.90;;;;;;4995879;28;19994;-75
2023/01/31 02:47:18;;;;;;;;;;;4.10;99.90;;;;;;5013122;28;19929;-75
2023/01/31 02:50:02;;;;;;;;;;;4.20;99.90;;;;;;5029523;28;19921;-75
2023/01/31 02:52:31;;;;;;;;;;;4.20;99.90;;;;;;5011579;28;20000;-75
2023/01/31 02:57:48;;;;;;;;;;;4.40;99.90;;;;;;5012990;28;19925;-74
2023/01/31 03:00:13;;;;;;;;;;;4.50;99.90;;;;;;5029659;28;19921;-75
2023/01/31 03:02:39;;;;;;;;;;;4.60;99.90;;;;;;4995823;28;19976;-75
2023/01/31 03:05:05;;;;;;;;;;;4.50;99.90;;;;;;5036164;28;19987;-75
2023/01/31 03:07:34;;;;;;;;;;;4.50;99.90;;;;;;5049115;28;20389;-75
2023/01/31 03:10:12;;;;;;;;;;;4.50;99.90;;;;;;5015089;28;19964;-75
2023/01/31 03:12:40;;;;;;;;;;;4.40;99.90;;;;;;5014515;28;19921;-75
2023/01/31 03:15:23;;;;;;;;;;;4.50;99.90;;;;;;5032706;28;19921;-75
2023/01/31 03:18:00;;;;;;;;;;;4.50;99.90;;;;;;5049448;28;19944;-74
2023/01/31 03:20:29;;;;;;;;;;;4.50;99.90;;;;;;5032811;28;20301;-75
2023/01/31 03:23:00;;;;;;;;;;;4.50;99.90;;;;;;5047994;28;20297;-75
2023/01/31 03:25:27;;;;;;;;;;;4.60;99.90;;;;;;5015889;28;19968;-74
2023/01/31 03:27:55;;;;;;;;;;;4.60;99.90;;;;;;5048980;28;19971;-75
2023/01/31 03:30:32;;;;;;;;;;;4.50;99.90;;;;;;5016143;28;19979;-75
2023/01/31 03:33:00;;;;;;;;;;;4.60;99.90;;;;;;5030712;28;19927;-75
2023/01/31 03:35:27;;;;;;;;;;;4.50;99.90;;;;;;5032488;28;20344;-75
2023/01/31 03:38:00;;;;;;;;;;;4.50;99.90;;;;;;5048861;28;19922;-75
2023/01/31 03:40:30;;;;;;;;;;;4.50;99.90;;;;;;5015771;28;19925;-75
2023/01/31 03:42:57;;;;;;;;;;;4.50;99.90;;;;;;5014336;28;19984;-76
2023/01/31 03:45:32;;;;;;;;;;;4.60;99.90;;;;;;5032145;28;19929;-76
2023/01/31 03:47:59;;;;;;;;;;;4.70;99.90;;;;;;5047001;28;20317;-76
2023/01/31 03:50:24;;;;;;;;;;;4.70;99.90;;;;;;5014983;28;19921;-76
2023/01/31 03:52:53;;;;;;;;;;;4.80;99.90;;;;;;5030912;28;19928;-75
2023/01/31 03:55:23;;;;;;;;;;;4.80;99.90;;;;;;5018208;28;20070;-74
2023/01/31 03:57:50;;;;;;;;;;;4.90;99.90;;;;;;5052598;28;19971;-74
2023/01/31 04:00:17;;;;;;;;;;;4.90;99.90;;;;;;5052580;28;20015;-74
2023/01/31 04:02:43;;;;;;;;;;;5.00;99.90;;;;;;5051283;28;19921;-74
2023/01/31 04:05:11;;;;;;;;;;;5.00;99.90;;;;;;5051318;28;19928;-74
2023/01/31 04:07:37;;;;;;;;;;;5.00;99.90;;;;;;5052557;28;19925;-74
2023/01/31 04:10:04;;;;;;;;;;;5.00;99.90;;;;;;5019373;28;19921;-74
2023/01/31 04:12:34;;;;;;;;;;;5.10;99.90;;;;;;5018395;28;19964;-74
2023/01/31 04:14:59;;;;;;;;;;;5.10;99.90;;;;;;5051132;28;20001;-74
2023/01/31 04:17:25;;;;;;;;;;;5.10;99.90;;;;;;5051289;28;19973;-74
2023/01/31 04:19:50;;;;;;;;;;;5.10;99.90;;;;;;5035840;28;20027;-75
2023/01/31 04:22:16;;;;;;;;;;;5.10;99.90;;;;;;5051160;28;19929;-74
2023/01/31 04:24:41;;;;;;;;;;;5.10;99.90;;;;;;5052310;28;20339;-75
2023/01/31 04:27:07;;;;;;;;;;;5.20;99.90;;;;;;5052098;28;19925;-75
2023/01/31 04:29:32;;;;;;;;;;;5.10;99.90;;;;;;5035471;28;19921;-75
2023/01/31 04:31:58;;;;;;;;;;;5.20;99.90;;;;;;5049901;28;20362;-75
2023/01/31 04:34:23;;;;;;;;;;;5.20;99.90;;;;;;5017359;28;19921;-75
2023/01/31 04:36:49;;;;;;;;;;;5.10;99.90;;;;;;5052132;28;19921;-75
2023/01/31 04:39:15;;;;;;;;;;;5.20;99.90;;;;;;5035577;28;19921;-75
2023/01/31 04:41:40;;;;;;;;;;;5.30;99.90;;;;;;5019140;28;19967;-75
2023/01/31 04:44:06;;;;;;;;;;;5.30;99.90;;;;;;5050223;28;20016;-75
2023/01/31 04:46:31;;;;;;;;;;;5.30;99.90;;;;;;5035223;28;19924;-75
2023/01/31 04:48:57;;;;;;;;;;;5.30;99.90;;;;;;5035232;28;19921;-75
2023/01/31 04:51:22;;;;;;;;;;;5.40;99.90;;;;;;5051769;28;20290;-75
2023/01/31 04:53:48;;;;;;;;;;;5.30;99.90;;;;;;5017127;28;20369;-75
2023/01/31 04:56:13;;;;;;;;;;;5.40;99.90;;;;;;5035195;28;19960;-75
2023/01/31 04:58:40;;;;;;;;;;;5.30;99.90;;;;;;5018762;28;20373;-75
2023/01/31 05:01:06;;;;;;;;;;;5.20;99.90;;;;;;5051364;28;20440;-75
2023/01/31 05:03:31;;;;;;;;;;;5.10;99.90;;;;;;5033463;28;19955;-75
2023/01/31 05:05:57;;;;;;;;;;;5.10;99.90;;;;;;5050269;28;20332;-75
2023/01/31 05:08:22;;;;;;;;;;;5.10;99.90;;;;;;5035150;28;19928;-75
2023/01/31 05:10:48;;;;;;;;;;;5.10;99.90;;;;;;5033124;28;20435;-75
2023/01/31 05:13:13;;;;;;;;;;;5.20;99.90;;;;;;5049954;28;20401;-75
2023/01/31 05:15:39;;;;;;;;;;;5.10;99.90;;;;;;5051198;28;19970;-75
2023/01/31 05:18:04;;;;;;;;;;;5.00;99.90;;;;;;5038625;28;20263;-75
2023/01/31 05:20:31;;;;;;;;;;;5.10;99.90;;;;;;5037653;28;19921;-75
2023/01/31 05:22:57;;;;;;;;;;;5.10;99.90;;;;;;5012674;28;19921;-75
2023/01/31 05:25:23;;;;;;;;;;;5.20;99.90;;;;;;5040728;28;19944;-76
2023/01/31 05:27:48;;;;;;;;;;;5.20;99.90;;;;;;5030939;28;20007;-76
2023/01/31 05:30:14;;;;;;;;;;;5.20;99.90;;;;;;5001825;28;20075;-76
2023/01/31 05:32:40;;;;;;;;;;;5.10;99.90;;;;;;5006140;28;19929;-76
2023/01/31 05:35:06;;;;;;;;;;;5.20;99.90;;;;;;5042411;28;19925;-76
2023/01/31 05:37:31;;;;;;;;;;;5.20;99.90;;;;;;5015425;28;20449;-76
2023/01/31 05:39:56;;;;;;;;;;;5.30;99.90;;;;;;5047628;28;19921;-75
2023/01/31 05:42:22;;;;;;;;;;;5.20;99.90;;;;;;5007014;28;19952;-76
2023/01/31 05:44:47;;;;;;;;;;;5.30;99.90;;;;;;5016691;28;20361;-76
2023/01/31 05:47:13;;;;;;;;;;;5.40;99.90;;;;;;5049498;28;19925;-76
2023/01/31 05:49:38;;;;;;;;;;;5.30;99.90;;;;;;5019374;28;19928;-75
2023/01/31 05:52:04;;;;;;;;;;;5.40;99.90;;;;;;5019293;28;20405;-75
2023/01/31 05:54:29;;;;;;;;;;;5.50;99.90;;;;;;5031016;28;19921;-76
2023/01/31 05:56:55;;;;;;;;;;;5.60;99.90;;;;;;5019505;28;19932;-75
2023/01/31 05:59:21;;;;;;;;;;;5.50;99.90;;;;;;5020968;28;19922;-75
2023/01/31 06:01:46;;;;;;;;;;;5.60;99.90;;;;;;5030431;28;19921;-75
2023/01/31 06:04:12;;;;;;;;;;;5.70;99.90;;;;;;5021601;28;19986;-75
2023/01/31 06:06:37;;;;;;;;;;;5.70;99.90;;;;;;5033354;28;20008;-75
2023/01/31 06:09:03;;;;;;;;;;;5.70;99.90;;;;;;5022889;28;19928;-75
2023/01/31 06:11:28;;;;;;;;;;;5.70;99.90;;;;;;4997480;28;19944;-75
2023/01/31 06:13:56;;;;;;;;;;;5.70;99.90;;;;;;5030191;28;20397;-75
2023/01/31 06:16:22;;;;;;;;;;;5.70;99.90;;;;;;5030235;28;19922;-75
2023/01/31 06:18:47;;;;;;;;;;;5.60;99.90;;;;;;5030088;28;19929;-75
2023/01/31 06:21:15;;;;;;;;;;;5.70;99.90;;;;;;5030353;28;19961;-79
2023/01/31 06:23:44;;;;;;;;;;;5.70;99.90;;;;;;5030587;28;20400;-76
2023/01/31 06:26:11;;;;;;;;;;;5.80;99.90;;;;;;5013424;28;19926;-76
2023/01/31 06:28:36;;;;;;;;;;;5.80;99.90;;;;;;5029955;28;19925;-76
2023/01/31 06:31:08;;;;;;;;;;;5.80;99.90;;;;;;5029895;28;20032;-76
2023/01/31 06:33:34;;;;;;;;;;;5.80;99.90;;;;;;5029801;28;20382;-76
2023/01/31 06:35:59;;;;;;;;;;;5.90;99.90;;;;;;4996991;28;19926;-76
2023/01/31 06:38:25;;;;;;;;;;;5.90;99.90;;;;;;5013632;28;19922;-76
2023/01/31 06:40:51;;;;;;;;;;;6.00;99.90;;;;;;4997203;28;20454;-76
2023/01/31 06:43:16;;;;;;;;;;;6.00;99.90;;;;;;5029680;28;20020;-76
2023/01/31 06:45:43;;;;;;;;;;;6.00;99.90;;;;;;5013186;28;20345;-76
2023/01/31 06:48:09;;;;;;;;;;;6.00;99.90;;;;;;5013478;28;19921;-76
2023/01/31 06:50:35;;;;;;;;;;;6.00;99.90;;;;;;5005739;28;19944;-76
2023/01/31 06:53:00;;;;;;;;;;;6.10;99.90;;;;;;5013231;28;20378;-76
2023/01/31 06:55:26;;;;;;;;;;;6.00;99.90;;;;;;5002521;28;20432;-76
2023/01/31 06:57:51;;;;;;;;;;;6.10;99.90;;;;;;5028527;28;19921;-76
2023/01/31 07:00:17;;;;;;;;;;;6.00;99.90;;;;;;4996307;28;20337;-76
2023/01/31 07:02:43;;;;;;;;;;;6.10;99.90;;;;;;4995961;28;19921;-76
2023/01/31 07:05:08;;;;;;;;;;;6.20;99.90;;;;;;5010582;28;19972;-76
2023/01/31 07:07:34;;;;;;;;;;;6.20;99.90;;;;;;5030759;28;20396;-76
2023/01/31 07:09:59;;;;;;;;;;;6.20;99.90;;;;;;5032623;28;19921;-76
2023/01/31 07:12:25;;;;;;;;;;;6.10;99.90;;;;;;5031831;28;19925;-76
2023/01/31 07:14:51;;;;;;;;;;;6.30;99.90;;;;;;5049164;28;20011;-76
2023/01/31 07:17:16;;;;;;;;;;;6.30;99.90;;;;;;5031624;28;19921;-76
2023/01/31 07:19:42;;;;;;;;;;;6.20;99.90;;;;;;5031073;28;19979;-76
2023/01/31 07:22:07;;;;;;;;;;;6.20;99.90;;;;;;5011167;28;19921;-76
2023/01/31 07:24:33;;;;;;;;;;;6.30;99.90;;;;;;5009504;28;19935;-76
2023/01/31 07:27:00;;;;;;;;;;;6.20;99.90;;;;;;5002152;28;19933;-76
2023/01/31 07:29:25;;;;;;;;;;;6.30;99.90;;;;;;5022412;28;19921;-76
2023/01/31 07:31:53;;;;;;;;;;;6.20;99.90;;;;;;5018334;28;20326;-76
2023/01/31 07:34:20;;;;;;;;;;;6.20;99.90;;;;;;5021714;28;19921;-76
2023/01/31 07:36:45;;;;;;;;;;;6.20;99.90;;;;;;5048451;28;19932;-76
2023/01/31 07:39:12;;;;;;;;;;;6.30;99.90;;;;;;5047490;28;19921;-76
2023/01/31 07:41:37;;;;;;;;;;;6.30;99.90;;;;;;5022200;28;20329;-76
2023/01/31 07:44:03;;;;;;;;;;;6.20;99.90;;;;;;5015326;28;19966;-76
2023/01/31 07:46:28;;;;;;;;;;;6.30;99.90;;;;;;5025194;28;19932;-76
2023/01/31 07:48:54;;;;;;;;;;;6.20;99.90;;;;;;5049345;28;19922;-76
2023/01/31 07:51:19;;;;;;;;;;;6.30;99.90;;;;;;5031486;28;19925;-76
2023/01/31 07:53:45;;;;;;;;;;;6.20;99.90;;;;;;5030955;28;19925;-76
2023/01/31 07:56:14;;;;;;;;;;;6.20;99.90;;;;;;5025761;28;19944;-76
2023/01/31 07:58:41;;;;;;;;;;;6.20;99.90;;;;;;5013659;28;20019;-76
2023/01/31 08:03:50;;;;;;;;;;;6.40;99.90;;;;;;5011901;28;20374;-76
2023/01/31 08:06:16;;;;;;;;;;;6.30;99.90;;;;;;5018019;28;19925;-76
2023/01/31 08:08:42;;;;;;;;;;;6.30;99.90;;;;;;4995236;28;20308;-76
2023/01/31 08:11:08;;;;;;;;;;;6.30;99.90;;;;;;5027509;28;19925;-76
2023/01/31 08:13:34;;;;;;;;;;;6.40;99.90;;;;;;5011941;28;19932;-76
2023/01/31 08:16:00;;;;;;;;;;;6.40;99.90;;;;;;5010409;28;19925;-76
2023/01/31 08:18:25;;;;;;;;;;;6.30;99.90;;;;;;5027804;28;19932;-76
2023/01/31 08:20:51;;;;;;;;;;;6.40;99.90;;;;;;5028174;28;19928;-77
2023/01/31 08:23:16;;;;;;;;;;;6.40;99.90;;;;;;5010246;28;19976;-76
2023/01/31 08:25:42;;;;;;;;;;;6.40;99.90;;;;;;4983065;28;20351;-76
2023/01/31 08:28:07;;;;;;;;;;;6.30;99.90;;;;;;4998649;28;20012;-76
2023/01/31 08:30:33;;;;;;;;;;;6.30;99.90;;;;;;5006027;28;19968;-77
2023/01/31 08:32:59;;;;;;;;;;;6.40;99.90;;;;;;5011260;28;20374;-76
2023/01/31 08:35:25;;;;;;;;;;;6.40;99.90;;;;;;5010445;28;19968;-76
2023/01/31 08:37:51;;;;;;;;;;;6.40;99.90;;;;;;5005252;28;19969;-76
2023/01/31 08:40:16;;;;;;;;;;;6.40;99.90;;;;;;4995721;28;20405;-76
2023/01/31 08:42:42;;;;;;;;;;;6.40;99.90;;;;;;5010558;28;20299;-77
2023/01/31 08:45:07;;;;;;;;;;;6.40;99.90;;;;;;5020584;28;19929;-77
2023/01/31 08:47:33;;;;;;;;;;;6.30;99.90;;;;;;5028763;28;19948;-76
2023/01/31 08:49:58;;;;;;;;;;;6.40;99.90;;;;;;4997941;28;19921;-76
2023/01/31 08:52:24;;;;;;;;;;;6.40;99.90;;;;;;5014286;28;19928;-76
2023/01/31 08:54:49;;;;;;;;;;;6.40;99.90;;;;;;5016411;28;20298;-76
2023/01/31 08:57:15;;;;;;;;;;;6.30;99.90;;;;;;4997683;28;19971;-76
2023/01/31 08:59:40;;;;;;;;;;;6.40;99.90;;;;;;5014775;28;19921;-76
2023/01/31 09:02:08;;;;;;;;;;;6.50;99.90;;;;;;5014418;28;19925;-76
2023/01/31 09:04:34;;;;;;;;;;;6.50;99.90;;;;;;5017189;28;20493;-76
2023/01/31 09:06:59;;;;;;;;;;;6.50;99.90;;;;;;5036766;28;19929;-77
2023/01/31 09:09:25;;;;;;;;;;;6.50;99.90;;;;;;5021680;28;19925;-77
2023/01/31 09:11:50;;;;;;;;;;;6.60;99.90;;;;;;5036784;28;19921;-76
2023/01/31 09:14:16;;;;;;;;;;;6.50;99.90;;;;;;5020209;28;19931;-77
2023/01/31 09:16:41;;;;;;;;;;;6.50;99.90;;;;;;5053350;28;19921;-76
2023/01/31 09:19:07;;;;;;;;;;;6.50;99.90;;;;;;5037650;28;19978;-76
2023/01/31 09:21:32;;;;;;;;;;;6.60;99.90;;;;;;5020353;28;20347;-77
2023/01/31 09:23:58;;;;;;;;;;;6.70;99.90;;;;;;5028915;28;20424;-76
2023/01/31 09:26:24;;;;;;;;;;;6.70;99.90;;;;;;5017877;28;20301;-76
2023/01/31 09:28:49;;;;;;;;;;;6.70;99.90;;;;;;5020578;28;19921;-76
2023/01/31 09:31:16;;;;;;;;;;;6.70;99.90;;;;;;5037386;28;20015;-76
2023/01/31 09:33:42;;;;;;;;;;;6.80;99.90;;;;;;5018768;28;19927;-76
2023/01/31 09:36:11;;;;;;;;;;;6.80;99.90;;;;;;5037685;28;20015;-76
2023/01/31 09:38:37;;;;;;;;;;;6.80;99.90;;;;;;5017788;28;20312;-76
2023/01/31 09:41:04;;;;;;;;;;;6.90;99.90;;;;;;5020591;28;19920;-77
2023/01/31 09:43:36;;;;;;;;;;;6.80;99.90;;;;;;5036335;28;19921;-76
2023/01/31 09:46:05;;;;;;;;;;;6.80;99.90;;;;;;5039430;28;19924;-76
2023/01/31 09:48:34;;;;;;;;;;;6.80;99.90;;;;;;5019678;28;19928;-76
2023/01/31 09:51:00;;;;;;;;;;;6.90;99.90;;;;;;5019216;28;19921;-75
2023/01/31 09:53:30;;;;;;;;;;;6.90;99.90;;;;;;5020136;28;19931;-75
2023/01/31 09:56:02;;;;;;;;;;;7.00;99.90;;;;;;5036584;28;20020;-75
2023/01/31 09:58:31;;;;;;;;;;;7.00;99.90;;;;;;5022144;28;19944;-75
2023/01/31 10:01:10;;;;;;;;;;;7.00;99.90;;;;;;5035718;28;20046;-75
2023/01/31 10:03:40;;;;;;;;;;;7.00;99.90;;;;;;5036683;28;19964;-75
2023/01/31 10:06:08;;;;;;;;;;;6.90;99.90;;;;;;5019967;28;19936;-75
2023/01/31 10:08:57;;;;;;;;;;;6.90;99.90;;;;;;5036926;28;19920;-75
2023/01/31 10:11:27;;;;;;;;;;;6.90;99.90;;;;;;5053296;28;19920;-75
2023/01/31 10:14:03;;;;;;;;;;;6.90;99.90;;;;;;5036146;28;19921;-75
2023/01/31 10:16:34;;;;;;;;;;;7.00;99.90;;;;;;5036598;28;20392;-75
2023/01/31 10:19:03;;;;;;;;;;;7.00;99.90;;;;;;5036675;28;20019;-75
2023/01/31 10:21:37;;;;;;;;;;;6.90;99.90;;;;;;5036587;28;19920;-75
2023/01/31 10:24:05;;;;;;;;;;;6.90;99.90;;;;;;5036582;28;20531;-75
2023/01/31 10:26:33;;;;;;;;;;;7.00;99.90;;;;;;5036672;28;20385;-75
2023/01/31 10:29:11;;;;;;;;;;;7.00;99.90;;;;;;5036456;28;19921;-75
2023/01/31 10:31:57;;;;;;;;;;;7.00;99.90;;;;;;5019807;28;20007;-75
2023/01/31 10:34:33;;;;;;;;;;;7.10;99.90;;;;;;5036856;28;19921;-75
2023/01/31 10:37:03;;;;;;;;;;;7.10;99.90;;;;;;5036081;28;19920;-75
2023/01/31 10:39:35;;;;;;;;;;;7.10;99.90;;;;;;5036120;28;19921;-75
2023/01/31 10:42:00;;;;;;;;;;;7.10;99.90;;;;;;5036355;28;19921;-75
2023/01/31 10:44:45;;;;;;;;;;;7.10;99.90;;;;;;5035878;28;19921;-75
2023/01/31 10:47:14;;;;;;;;;;;7.10;99.90;;;;;;5035905;28;20297;-75
2023/01/31 10:49:42;;;;;;;;;;;7.10;99.90;;;;;;5052641;28;20012;-75
2023/01/31 10:52:12;;;;;;;;;;;7.00;99.90;;;;;;5034346;28;20007;-73
2023/01/31 10:54:45;;;;;;;;;;;7.00;99.90;;;;;;5033703;28;19920;-76
2023/01/31 10:57:11;;;;;;;;;;;6.90;99.90;;;;;;5052126;28;20025;-76
2023/01/31 10:59:37;;;;;;;;;;;6.90;99.90;;;;;;5047369;28;20003;-76
2023/01/31 11:02:03;;;;;;;;;;;7.00;99.90;;;;;;5018368;28;19928;-76
2023/01/31 11:04:30;;;;;;;;;;;7.00;99.90;;;;;;5017887;28;20293;-75
2023/01/31 11:06:57;;;;;;;;;;;6.90;99.90;;;;;;5033668;28;19929;-76
2023/01/31 11:09:23;;;;;;;;;;;6.90;99.90;;;;;;5017977;28;19920;-76
2023/01/31 11:11:59;;;;;;;;;;;6.90;99.90;;;;;;5049550;28;19974;-76
2023/01/31 11:14:25;;;;;;;;;;;7.00;99.90;;;;;;5027259;28;20447;-75
2023/01/31 11:17:20;;;;;;;;;;;7.00;99.90;;;;;;5016821;28;19921;-76
2023/01/31 11:19:47;;;;;;;;;;;7.00;99.90;;;;;;5022778;28;20380;-75
2023/01/31 11:22:30;;;;;;;;;;;7.00;99.90;;;;;;5019308;28;19935;-76
2023/01/31 11:24:57;;;;;;;;;;;7.00;99.90;;;;;;5035266;28;19929;-76
2023/01/31 11:27:42;;;;;;;;;;;7.00;99.90;;;;;;5034492;28;19924;-76
2023/01/31 11:30:28;;;;;;;;;;;7.00;99.90;;;;;;5050942;28;19968;-75
2023/01/31 11:32:53;;;;;;;;;;;6.90;99.90;;;;;;5034820;28;19927;-75
2023/01/31 11:35:20;;;;;;;;;;;7.00;99.90;;;;;;5019421;28;19921;-75
2023/01/31 11:37:53;;;;;;;;;;;7.00;99.90;;;;;;5050922;28;19925;-75
2023/01/31 11:40:25;;;;;;;;;;;7.00;99.90;;;;;;5033943;28;19925;-76
2023/01/31 11:42:52;;;;;;;;;;;7.00;99.90;;;;;;5033220;28;19928;-75
2023/01/31 11:45:19;;;;;;;;;;;7.00;99.90;;;;;;5011616;28;20011;-75
2023/01/31 11:47:46;;;;;;;;;;;7.00;99.90;;;;;;5034127;28;20293;-75
2023/01/31 11:50:22;;;;;;;;;;;6.90;99.90;;;;;;5018383;28;19920;-75
2023/01/31 11:52:55;;;;;;;;;;;7.00;99.90;;;;;;5017691;28;20284;-75
2023/01/31 11:55:21;;;;;;;;;;;7.00;99.90;;;;;;5018080;28;19921;-74
2023/01/31 11:57:53;;;;;;;;;;;7.00;99.90;;;;;;5035644;28;19971;-74
2023/01/31 12:00:23;;;;;;;;;;;7.00;99.90;;;;;;5018524;28;19924;-74
2023/01/31 12:03:00;;;;;;;;;;;7.00;99.90;;;;;;5034942;28;19921;-75
2023/01/31 12:05:31;;;;;;;;;;;7.00;99.90;;;;;;5018692;28;19935;-74
2023/01/31 12:07:57;;;;;;;;;;;7.10;99.90;;;;;;5014888;28;19925;-74
2023/01/31 12:10:33;;;;;;;;;;;7.10;99.90;;;;;;5036635;28;19920;-74
2023/01/31 12:13:00;;;;;;;;;;;7.20;99.90;;;;;;5040289;28;19971;-75
2023/01/31 12:15:27;;;;;;;;;;;7.20;99.90;;;;;;5036565;28;20339;-75
2023/01/31 12:17:52;;;;;;;;;;;7.30;99.90;;;;;;5038200;28;20446;-75
2023/01/31 12:20:36;;;;;;;;;;;7.40;99.90;;;;;;5022282;28;20015;-75
2023/01/31 12:23:05;;;;;;;;;;;7.40;99.90;;;;;;5022769;28;20327;-75
2023/01/31 12:25:45;;;;;;;;;;;7.40;99.90;;;;;;5038574;28;19960;-75
2023/01/31 12:28:20;;;;;;;;;;;7.50;99.90;;;;;;5037943;28;19925;-75
2023/01/31 12:30:52;;;;;;;;;;;7.60;99.90;;;;;;5022281;28;19925;-75
2023/01/31 12:33:20;;;;;;;;;;;7.70;99.90;;;;;;5038631;28;19921;-75
2023/01/31 12:35:55;;;;;;;;;;;7.70;99.90;;;;;;5038307;28;20019;-76
2023/01/31 12:38:26;;;;;;;;;;;7.70;99.90;;;;;;5032896;28;20345;-76
2023/01/31 12:41:03;;;;;;;;;;;7.80;99.90;;;;;;5037612;28;20304;-76
2023/01/31 12:43:32;;;;;;;;;;;7.80;99.90;;;;;;5036461;28;20300;-76
2023/01/31 12:46:08;;;;;;;;;;;7.80;99.90;;;;;;5030814;28;19925;-76
2023/01/31 12:48:40;;;;;;;;;;;7.90;99.90;;;;;;5040260;28;19964;-77
2023/01/31 12:51:18;;;;;;;;;;;7.90;99.90;;;;;;5037278;28;20001;-76
2023/01/31 12:53:47;;;;;;;;;;;8.00;99.90;;;;;;5037318;28;19927;-76
2023/01/31 12:56:22;;;;;;;;;;;8.00;99.90;;;;;;5033147;28;19929;-76
2023/01/31 12:59:01;;;;;;;;;;;8.00;99.90;;;;;;5037539;28;19921;-76
2023/01/31 13:01:33;;;;;;;;;;;8.10;99.90;;;;;;5036796;28;19921;-76
2023/01/31 13:04:05;;;;;;;;;;;8.10;99.90;;;;;;5035869;28;20331;-76
2023/01/31 13:06:35;;;;;;;;;;;8.20;99.90;;;;;;5052444;28;19924;-76
2023/01/31 13:09:10;;;;;;;;;;;8.20;99.90;;;;;;5035810;28;19920;-76
2023/01/31 13:11:38;;;;;;;;;;;8.20;99.90;;;;;;5025763;28;19925;-76
2023/01/31 13:14:04;;;;;;;;;;;8.30;99.90;;;;;;5031857;28;20258;-76
2023/01/31 13:16:36;;;;;;;;;;;8.30;99.90;;;;;;5052032;28;20330;-77
2023/01/31 13:19:05;;;;;;;;;;;8.30;99.90;;;;;;5035802;28;20392;-76
2023/01/31 13:21:37;;;;;;;;;;;8.40;99.90;;;;;;5036880;28;20130;-77
2023/01/31 13:24:11;;;;;;;;;;;8.40;99.90;;;;;;5016524;28;19925;-76
2023/01/31 13:26:41;;;;;;;;;;;8.40;99.90;;;;;;5016900;28;20377;-77
2023/01/31 13:29:25;;;;;;;;;;;8.40;99.90;;;;;;5017649;28;19952;-77
2023/01/31 13:32:09;;;;;;;;;;;8.30;99.90;;;;;;5036208;28;19986;-77
2023/01/31 13:34:40;;;;;;;;;;;8.30;99.90;;;;;;5054019;28;19920;-79
2023/01/31 13:37:11;;;;;;;;;;;8.40;99.90;;;;;;5027131;28;19924;-79
2023/01/31 13:39:41;;;;;;;;;;;8.30;99.90;;;;;;5038119;28;19921;-79
2023/01/31 13:42:09;;;;;;;;;;;8.30;99.90;;;;;;5021212;28;19928;-79
2023/01/31 13:44:34;;;;;;;;;;;8.30;99.90;;;;;;5020727;28;19921;-78
2023/01/31 13:47:02;;;;;;;;;;;8.50;99.90;;;;;;5037514;28;19978;-78
2023/01/31 13:49:33;;;;;;;;;;;8.40;99.90;;;;;;5036832;28;20457;-78
2023/01/31 13:52:02;;;;;;;;;;;8.40;99.90;;;;;;5036386;28;19921;-78
2023/01/31 13:54:31;;;;;;;;;;;8.30;99.90;;;;;;5017082;28;20038;-77
2023/01/31 13:56:58;;;;;;;;;;;8.40;99.90;;;;;;5036444;28;20403;-78
2023/01/31 13:59:25;;;;;;;;;;;8.40;99.90;;;;;;5018110;28;19920;-78
2023/01/31 14:01:52;;;;;;;;;;;8.50;99.90;;;;;;5051351;28;20381;-84
2023/01/31 14:04:17;;;;;;;;;;;8.40;99.90;;;;;;5019817;28;19928;-74
2023/01/31 14:06:55;;;;;;;;;;;8.40;99.90;;;;;;5015434;28;20279;-84
2023/01/31 14:09:24;;;;;;;;;;;8.50;99.90;;;;;;5010724;28;19928;-88
2023/01/31 14:11:50;;;;;;;;;;;8.50;99.90;;;;;;4991167;28;19928;-78
2023/01/31 14:14:17;;;;;;;;;;;8.50;99.90;;;;;;5010965;28;20293;-78
2023/01/31 14:16:45;;;;;;;;;;;8.50;99.90;;;;;;4989220;28;19928;-78
2023/01/31 14:19:20;;;;;;;;;;;8.40;99.90;;;;;;5000976;28;19921;-78
2023/01/31 14:22:03;;;;;;;;;;;8.40;99.90;;;;;;5013373;28;19925;-77
2023/01/31 14:24:48;;;;;;;;;;;8.40;99.90;;;;;;5012830;28;20477;-78
2023/01/31 14:27:34;;;;;;;;;;;8.40;99.90;;;;;;5010126;28;19926;-78
2023/01/31 14:30:00;;;;;;;;;;;8.40;99.90;;;;;;5013576;28;20016;-78
2023/01/31 14:32:39;;;;;;;;;;;8.40;99.90;;;;;;5013498;28;20012;-77
2023/01/31 14:35:16;;;;;;;;;;;8.40;99.90;;;;;;5008668;28;20024;-78
2023/01/31 14:37:51;;;;;;;;;;;8.50;99.90;;;;;;4997133;28;20255;-78
2023/01/31 14:40:17;;;;;;;;;;;8.40;99.90;;;;;;5013431;28;20425;-78
2023/01/31 14:42:50;;;;;;;;;;;8.30;99.90;;;;;;5013437;28;19983;-78
2023/01/31 14:45:28;;;;;;;;;;;8.40;99.90;;;;;;5009906;28;19926;-77
2023/01/31 14:48:09;;;;;;;;;;;8.40;99.90;;;;;;5013256;28;20390;-78